Domov               UVHVVR             MKGP            O straneh              
ZDRAVSTVENO VARSTVO RASTLIN
  MREŽA AGROMET. POSTAJ
 ► PROGNOSTIČNA OBVESTILA
AGROMETEOROLOŠKI PODATKI -
ARSO
OBVLADOVANJE TVEGANJ ZARADI
NEUGODNIH VREMENSKIH RAZMER
  ► NARAVNE NESREČE
  ► SUŠA/MOČA
  ► NAMAKANJE
  ► ŽLED (gozdarstvo)
KARTOGRAFSKI PRIKAZI
SPLETNE POVEZAVE
PROJEKTI IN PUBLIKACIJE

AGROMETEOROLOŠKA MREŽA: VREMENSKE POSTAJE IN FENOLOŠKA OPAZOVANJA

Pregled podatkov za lokacijo Pesnica, meteorološka postaja 25158

Pregled senzorjev na lokaciji

ID Ime Zadnja
vrednost
Datum
zadnje
spremembe
Tip
senzorja
913 Omočenost lista (U) 10 U 21.10.2017 00:59 A730WET
914 Temperatura 2 m ( °C) 8,13 °C 21.10.2017 01:00 Generic -40 - +60 °C
915 Relativna vlaga 2 m (% RH) 97,8 % RH 21.10.2017 01:00 Generic 0 - 100 %
916 Padavine 0.2 mm (mm) 0 mm 21.10.2017 01:00 Generic 0.2 mm
3981 Hitrost vetra (km/h) 0 km/h 21.10.2017 01:00 Generic 200 km/h

Pregled podatkov zadnjih 24 ur

Zap.
št.
Datum in čas Pesnica
Hitrost
vetra
Omočenost
lista
Padavine
0.2
mm
Relativna
vlaga
2
m
Temperatura
2
m
0 21.10.2017 00:00 0 10 0 97,8 8,13
1 20.10.2017 23:30 0 10 0 97,29 8,64
2 20.10.2017 23:00 0 10 0 97,22 8,64
3 20.10.2017 22:30 0 10 0 96,7 9,21
4 20.10.2017 22:00 0 9 0 96,48 9,65
5 20.10.2017 21:30 0 6 0 96,21 9,82
6 20.10.2017 21:00 0 5 0 95,04 10,23
7 20.10.2017 20:30 0 4 0 93,19 10,96
8 20.10.2017 20:00 0,54 3 0 87,72 12,33
9 20.10.2017 19:30 0 3 0 85,1 11,99
10 20.10.2017 19:00 0 2 0 89,08 11,97
11 20.10.2017 18:30 0 1 0 87,11 12,67
12 20.10.2017 18:00 0 0 0 80,44 13,68
13 20.10.2017 17:30 0 0 0 79,63 15,19
14 20.10.2017 17:00 0,24 0 0 70,72 16,56
15 20.10.2017 16:30 0 0 0 67,89 18,07
16 20.10.2017 16:00 0 0 0 59,34 19,8
17 20.10.2017 15:30 0 0 0 56,8 20,39
18 20.10.2017 15:00 0 0 0 54,53 20,66
19 20.10.2017 14:30 0,1 0 0 53,43 20,61
20 20.10.2017 14:00 0,54 0 0 55,92 20,54
21 20.10.2017 13:30 0,83 0 0 55,12 19,83
22 20.10.2017 13:00 1,03 0 0 51,97 19,98
23 20.10.2017 12:30 0 0 0 49,91 19,63
24 20.10.2017 12:00 0,34 0 0 50,87 18,78
25 20.10.2017 11:30 0,2 0 0 54,85 17,48
26 20.10.2017 11:00 0,2 6 0 62,42 16,51
27 20.10.2017 10:30 0,1 10 0 67,69 14,65
28 20.10.2017 10:00 0 10 0 75,24 13,33
29 20.10.2017 09:30 0,05 10 0 94,43 10,53
30 20.10.2017 09:00 0 10 0 98,58 9,28
31 20.10.2017 08:30 0 10 0 98,68 7,06
32 20.10.2017 08:00 0 10 0 98,75 5,23
33 20.10.2017 07:30 0 10 0 98,63 4,57
34 20.10.2017 07:00 0 10 0 98,58 4,03
35 20.10.2017 06:30 0 10 0 98,63 4,22
36 20.10.2017 06:00 0 10 0 98,46 4,4
37 20.10.2017 05:30 0 10 0 98,49 5,03
38 20.10.2017 05:00 0 10 0 98,58 5,05
39 20.10.2017 04:30 0 10 0 98,39 5,52
40 20.10.2017 04:00 0 10 0 98,41 5,84
41 20.10.2017 03:30 0 10 0 98,36 6,01
42 20.10.2017 03:00 0,05 10 0 98,14 6,79
43 20.10.2017 02:30 0 10 0 98,24 6,23
44 20.10.2017 02:00 0 10 0 98,32 6,67
45 20.10.2017 01:30 0 10 0 98 7,3
© 2011 Ministrstvo za kmetijstvo, gozdarstvo in prehrano. Vse pravice pridržane.